sensor_id;sensor_type;location;lat;lon;timestamp;P1;durP1;ratioP1;P2;durP2;ratioP2
16440;SDS011;8330;-33.858;151.184;2023-07-31T00:01:37;0.80;;;0.50;;
16440;SDS011;8330;-33.858;151.184;2023-07-31T00:04:08;3.15;;;0.73;;
16440;SDS011;8330;-33.858;151.184;2023-07-31T00:06:39;1.75;;;0.68;;
16440;SDS011;8330;-33.858;151.184;2023-07-31T00:09:10;2.13;;;0.65;;
16440;SDS011;8330;-33.858;151.184;2023-07-31T00:11:43;0.85;;;0.50;;
16440;SDS011;8330;-33.858;151.184;2023-07-31T00:14:19;0.40;;;0.40;;
16440;SDS011;8330;-33.858;151.184;2023-07-31T00:16:49;0.80;;;0.52;;
16440;SDS011;8330;-33.858;151.184;2023-07-31T00:19:21;2.65;;;0.80;;
16440;SDS011;8330;-33.858;151.184;2023-07-31T00:21:53;1.13;;;0.65;;
16440;SDS011;8330;-33.858;151.184;2023-07-31T00:24:24;0.90;;;0.55;;
16440;SDS011;8330;-33.858;151.184;2023-07-31T00:26:55;0.90;;;0.43;;
16440;SDS011;8330;-33.858;151.184;2023-07-31T00:29:27;2.95;;;0.70;;
16440;SDS011;8330;-33.858;151.184;2023-07-31T00:31:58;2.03;;;0.80;;
16440;SDS011;8330;-33.858;151.184;2023-07-31T00:34:29;0.93;;;0.60;;
16440;SDS011;8330;-33.858;151.184;2023-07-31T00:37:00;3.53;;;0.73;;
16440;SDS011;8330;-33.858;151.184;2023-07-31T00:39:33;2.97;;;0.60;;
16440;SDS011;8330;-33.858;151.184;2023-07-31T00:42:04;1.70;;;0.63;;
16440;SDS011;8330;-33.858;151.184;2023-07-31T00:44:37;1.38;;;0.63;;
16440;SDS011;8330;-33.858;151.184;2023-07-31T00:47:09;2.75;;;0.50;;
16440;SDS011;8330;-33.858;151.184;2023-07-31T00:49:40;0.80;;;0.50;;
16440;SDS011;8330;-33.858;151.184;2023-07-31T00:52:11;1.70;;;0.50;;
16440;SDS011;8330;-33.858;151.184;2023-07-31T00:54:42;1.23;;;0.50;;
16440;SDS011;8330;-33.858;151.184;2023-07-31T00:57:13;1.52;;;0.57;;
16440;SDS011;8330;-33.858;151.184;2023-07-31T00:59:49;1.25;;;0.55;;
16440;SDS011;8330;-33.858;151.184;2023-07-31T01:02:20;1.48;;;0.60;;
16440;SDS011;8330;-33.858;151.184;2023-07-31T01:04:52;1.45;;;0.70;;
16440;SDS011;8330;-33.858;151.184;2023-07-31T01:07:25;1.80;;;0.50;;
16440;SDS011;8330;-33.858;151.184;2023-07-31T01:10:02;2.50;;;0.73;;
16440;SDS011;8330;-33.858;151.184;2023-07-31T01:12:38;1.98;;;0.50;;
16440;SDS011;8330;-33.858;151.184;2023-07-31T01:15:13;2.92;;;0.40;;
16440;SDS011;8330;-33.858;151.184;2023-07-31T01:17:44;3.20;;;0.50;;
16440;SDS011;8330;-33.858;151.184;2023-07-31T01:20:16;2.15;;;0.50;;
16440;SDS011;8330;-33.858;151.184;2023-07-31T01:23:12;1.52;;;0.50;;
16440;SDS011;8330;-33.858;151.184;2023-07-31T01:26:18;2.35;;;0.47;;
16440;SDS011;8330;-33.858;151.184;2023-07-31T01:28:54;0.88;;;0.57;;
16440;SDS011;8330;-33.858;151.184;2023-07-31T01:31:31;2.90;;;0.70;;
16440;SDS011;8330;-33.858;151.184;2023-07-31T01:34:04;1.13;;;0.50;;
16440;SDS011;8330;-33.858;151.184;2023-07-31T01:36:37;1.13;;;0.60;;
16440;SDS011;8330;-33.858;151.184;2023-07-31T01:39:08;0.95;;;0.50;;
16440;SDS011;8330;-33.858;151.184;2023-07-31T01:41:43;3.50;;;0.80;;
16440;SDS011;8330;-33.858;151.184;2023-07-31T01:44:14;1.70;;;0.60;;
16440;SDS011;8330;-33.858;151.184;2023-07-31T01:46:45;1.20;;;0.50;;
16440;SDS011;8330;-33.858;151.184;2023-07-31T01:49:17;1.30;;;0.90;;
16440;SDS011;8330;-33.858;151.184;2023-07-31T01:51:48;0.68;;;0.50;;
16440;SDS011;8330;-33.858;151.184;2023-07-31T01:54:19;0.88;;;0.60;;
16440;SDS011;8330;-33.858;151.184;2023-07-31T01:56:53;1.30;;;0.50;;
16440;SDS011;8330;-33.858;151.184;2023-07-31T01:59:25;1.90;;;0.50;;
16440;SDS011;8330;-33.858;151.184;2023-07-31T02:01:56;1.83;;;0.60;;
16440;SDS011;8330;-33.858;151.184;2023-07-31T02:04:27;0.82;;;0.52;;
16440;SDS011;8330;-33.858;151.184;2023-07-31T02:06:58;0.88;;;0.40;;
16440;SDS011;8330;-33.858;151.184;2023-07-31T02:09:28;1.83;;;0.80;;
16440;SDS011;8330;-33.858;151.184;2023-07-31T02:12:02;0.73;;;0.40;;
16440;SDS011;8330;-33.858;151.184;2023-07-31T02:14:34;1.80;;;0.43;;
16440;SDS011;8330;-33.858;151.184;2023-07-31T02:17:05;3.88;;;0.60;;
16440;SDS011;8330;-33.858;151.184;2023-07-31T02:19:36;2.13;;;0.50;;
16440;SDS011;8330;-33.858;151.184;2023-07-31T02:22:07;1.25;;;0.60;;
16440;SDS011;8330;-33.858;151.184;2023-07-31T02:24:38;1.33;;;0.60;;
16440;SDS011;8330;-33.858;151.184;2023-07-31T02:27:11;1.40;;;0.57;;
16440;SDS011;8330;-33.858;151.184;2023-07-31T02:29:41;3.17;;;0.55;;
16440;SDS011;8330;-33.858;151.184;2023-07-31T02:32:12;0.98;;;0.60;;
16440;SDS011;8330;-33.858;151.184;2023-07-31T02:34:43;3.95;;;0.50;;
16440;SDS011;8330;-33.858;151.184;2023-07-31T02:37:17;1.33;;;0.60;;
16440;SDS011;8330;-33.858;151.184;2023-07-31T02:39:48;1.42;;;0.50;;
16440;SDS011;8330;-33.858;151.184;2023-07-31T02:42:22;2.60;;;0.70;;
16440;SDS011;8330;-33.858;151.184;2023-07-31T02:44:53;0.95;;;0.60;;
16440;SDS011;8330;-33.858;151.184;2023-07-31T02:47:24;2.25;;;0.50;;
16440;SDS011;8330;-33.858;151.184;2023-07-31T02:49:56;2.03;;;0.40;;
16440;SDS011;8330;-33.858;151.184;2023-07-31T02:52:27;4.35;;;0.50;;
16440;SDS011;8330;-33.858;151.184;2023-07-31T02:54:58;2.08;;;0.55;;
16440;SDS011;8330;-33.858;151.184;2023-07-31T02:57:30;0.80;;;0.45;;
16440;SDS011;8330;-33.858;151.184;2023-07-31T03:00:02;1.02;;;0.50;;
16440;SDS011;8330;-33.858;151.184;2023-07-31T03:02:34;3.97;;;0.60;;
16440;SDS011;8330;-33.858;151.184;2023-07-31T03:05:05;1.95;;;0.75;;
16440;SDS011;8330;-33.858;151.184;2023-07-31T03:07:36;1.10;;;0.50;;
16440;SDS011;8330;-33.858;151.184;2023-07-31T03:10:08;1.05;;;0.50;;
16440;SDS011;8330;-33.858;151.184;2023-07-31T03:12:44;2.00;;;0.43;;
16440;SDS011;8330;-33.858;151.184;2023-07-31T03:15:16;2.08;;;0.60;;
16440;SDS011;8330;-33.858;151.184;2023-07-31T03:17:47;1.50;;;0.50;;
16440;SDS011;8330;-33.858;151.184;2023-07-31T03:20:18;0.52;;;0.40;;
16440;SDS011;8330;-33.858;151.184;2023-07-31T03:22:53;2.60;;;0.50;;
16440;SDS011;8330;-33.858;151.184;2023-07-31T03:25:24;2.58;;;0.45;;
16440;SDS011;8330;-33.858;151.184;2023-07-31T03:27:56;1.35;;;0.45;;
16440;SDS011;8330;-33.858;151.184;2023-07-31T03:30:28;0.90;;;0.52;;
16440;SDS011;8330;-33.858;151.184;2023-07-31T03:32:59;2.72;;;0.50;;
16440;SDS011;8330;-33.858;151.184;2023-07-31T03:35:30;4.13;;;0.65;;
16440;SDS011;8330;-33.858;151.184;2023-07-31T03:38:00;2.83;;;0.60;;
16440;SDS011;8330;-33.858;151.184;2023-07-31T03:40:31;1.15;;;0.60;;
16440;SDS011;8330;-33.858;151.184;2023-07-31T03:43:04;0.65;;;0.40;;
16440;SDS011;8330;-33.858;151.184;2023-07-31T03:45:37;1.75;;;0.50;;
16440;SDS011;8330;-33.858;151.184;2023-07-31T03:48:08;0.43;;;0.43;;
16440;SDS011;8330;-33.858;151.184;2023-07-31T03:50:39;2.90;;;0.50;;
16440;SDS011;8330;-33.858;151.184;2023-07-31T03:53:11;1.50;;;0.40;;
16440;SDS011;8330;-33.858;151.184;2023-07-31T03:55:42;5.15;;;0.70;;
16440;SDS011;8330;-33.858;151.184;2023-07-31T03:58:14;1.85;;;0.57;;
16440;SDS011;8330;-33.858;151.184;2023-07-31T04:00:45;3.08;;;0.60;;
16440;SDS011;8330;-33.858;151.184;2023-07-31T04:03:16;1.83;;;0.57;;
16440;SDS011;8330;-33.858;151.184;2023-07-31T04:05:47;4.72;;;0.57;;
16440;SDS011;8330;-33.858;151.184;2023-07-31T04:08:19;2.03;;;0.50;;
16440;SDS011;8330;-33.858;151.184;2023-07-31T04:10:51;1.73;;;0.40;;
16440;SDS011;8330;-33.858;151.184;2023-07-31T04:13:26;2.10;;;0.60;;
16440;SDS011;8330;-33.858;151.184;2023-07-31T04:16:01;3.35;;;0.50;;
16440;SDS011;8330;-33.858;151.184;2023-07-31T04:18:35;1.20;;;0.55;;
16440;SDS011;8330;-33.858;151.184;2023-07-31T04:21:06;1.15;;;0.60;;
16440;SDS011;8330;-33.858;151.184;2023-07-31T04:23:39;3.25;;;0.60;;
16440;SDS011;8330;-33.858;151.184;2023-07-31T04:26:11;1.85;;;0.50;;
16440;SDS011;8330;-33.858;151.184;2023-07-31T04:28:44;0.88;;;0.40;;
16440;SDS011;8330;-33.858;151.184;2023-07-31T04:31:15;3.85;;;0.63;;
16440;SDS011;8330;-33.858;151.184;2023-07-31T04:33:46;4.18;;;0.57;;
16440;SDS011;8330;-33.858;151.184;2023-07-31T04:36:18;1.80;;;0.60;;
16440;SDS011;8330;-33.858;151.184;2023-07-31T04:38:50;3.50;;;0.60;;
16440;SDS011;8330;-33.858;151.184;2023-07-31T04:41:21;1.25;;;0.50;;
16440;SDS011;8330;-33.858;151.184;2023-07-31T04:43:56;2.38;;;0.50;;
16440;SDS011;8330;-33.858;151.184;2023-07-31T04:46:28;3.22;;;0.50;;
16440;SDS011;8330;-33.858;151.184;2023-07-31T04:49:00;0.70;;;0.50;;
16440;SDS011;8330;-33.858;151.184;2023-07-31T04:51:32;1.83;;;0.47;;
16440;SDS011;8330;-33.858;151.184;2023-07-31T04:54:03;0.70;;;0.45;;
16440;SDS011;8330;-33.858;151.184;2023-07-31T04:56:35;0.63;;;0.45;;
16440;SDS011;8330;-33.858;151.184;2023-07-31T04:59:10;2.03;;;0.50;;
16440;SDS011;8330;-33.858;151.184;2023-07-31T05:01:42;1.48;;;0.60;;
16440;SDS011;8330;-33.858;151.184;2023-07-31T05:04:14;0.70;;;0.40;;
16440;SDS011;8330;-33.858;151.184;2023-07-31T05:06:46;0.98;;;0.45;;
16440;SDS011;8330;-33.858;151.184;2023-07-31T05:09:18;2.00;;;0.60;;
16440;SDS011;8330;-33.858;151.184;2023-07-31T05:11:50;1.08;;;0.40;;
16440;SDS011;8330;-33.858;151.184;2023-07-31T05:14:24;0.40;;;0.35;;
16440;SDS011;8330;-33.858;151.184;2023-07-31T05:16:55;1.33;;;0.40;;
16440;SDS011;8330;-33.858;151.184;2023-07-31T05:19:26;0.32;;;0.30;;
16440;SDS011;8330;-33.858;151.184;2023-07-31T05:21:58;1.00;;;0.45;;
16440;SDS011;8330;-33.858;151.184;2023-07-31T05:24:30;1.08;;;0.40;;
16440;SDS011;8330;-33.858;151.184;2023-07-31T05:27:01;0.80;;;0.40;;
16440;SDS011;8330;-33.858;151.184;2023-07-31T05:29:35;3.03;;;0.50;;
16440;SDS011;8330;-33.858;151.184;2023-07-31T05:32:06;1.33;;;0.40;;
16440;SDS011;8330;-33.858;151.184;2023-07-31T05:34:38;0.80;;;0.45;;
16440;SDS011;8330;-33.858;151.184;2023-07-31T05:37:10;1.38;;;0.55;;
16440;SDS011;8330;-33.858;151.184;2023-07-31T05:39:42;1.33;;;0.40;;
16440;SDS011;8330;-33.858;151.184;2023-07-31T05:42:14;1.63;;;0.50;;
16440;SDS011;8330;-33.858;151.184;2023-07-31T05:44:49;1.65;;;0.40;;
16440;SDS011;8330;-33.858;151.184;2023-07-31T05:47:21;0.98;;;0.43;;
16440;SDS011;8330;-33.858;151.184;2023-07-31T05:49:52;0.93;;;0.50;;
16440;SDS011;8330;-33.858;151.184;2023-07-31T05:52:23;1.90;;;0.50;;
16440;SDS011;8330;-33.858;151.184;2023-07-31T05:54:55;0.30;;;0.30;;
16440;SDS011;8330;-33.858;151.184;2023-07-31T05:57:26;0.68;;;0.32;;
16440;SDS011;8330;-33.858;151.184;2023-07-31T05:59:59;0.80;;;0.40;;
16440;SDS011;8330;-33.858;151.184;2023-07-31T06:02:30;2.50;;;0.50;;
16440;SDS011;8330;-33.858;151.184;2023-07-31T06:05:03;1.95;;;0.50;;
16440;SDS011;8330;-33.858;151.184;2023-07-31T06:07:36;1.50;;;0.50;;
16440;SDS011;8330;-33.858;151.184;2023-07-31T06:10:08;0.85;;;0.32;;
16440;SDS011;8330;-33.858;151.184;2023-07-31T06:12:39;2.33;;;0.40;;
16440;SDS011;8330;-33.858;151.184;2023-07-31T06:15:13;1.00;;;0.40;;
16440;SDS011;8330;-33.858;151.184;2023-07-31T06:17:45;1.52;;;0.50;;
16440;SDS011;8330;-33.858;151.184;2023-07-31T06:20:17;0.73;;;0.40;;
16440;SDS011;8330;-33.858;151.184;2023-07-31T06:22:49;1.55;;;0.40;;
16440;SDS011;8330;-33.858;151.184;2023-07-31T06:25:19;0.98;;;0.30;;
16440;SDS011;8330;-33.858;151.184;2023-07-31T06:27:50;0.60;;;0.40;;
16440;SDS011;8330;-33.858;151.184;2023-07-31T06:30:25;0.70;;;0.35;;
16440;SDS011;8330;-33.858;151.184;2023-07-31T06:32:57;2.25;;;0.60;;
16440;SDS011;8330;-33.858;151.184;2023-07-31T06:35:28;2.28;;;0.40;;
16440;SDS011;8330;-33.858;151.184;2023-07-31T06:37:59;1.08;;;0.35;;
16440;SDS011;8330;-33.858;151.184;2023-07-31T06:40:30;3.40;;;0.60;;
16440;SDS011;8330;-33.858;151.184;2023-07-31T06:43:02;0.50;;;0.35;;
16440;SDS011;8330;-33.858;151.184;2023-07-31T06:45:38;1.52;;;0.55;;
16440;SDS011;8330;-33.858;151.184;2023-07-31T06:48:09;0.88;;;0.40;;
16440;SDS011;8330;-33.858;151.184;2023-07-31T06:50:41;1.98;;;0.40;;
16440;SDS011;8330;-33.858;151.184;2023-07-31T06:53:16;1.73;;;0.50;;
16440;SDS011;8330;-33.858;151.184;2023-07-31T06:55:47;2.88;;;0.40;;
16440;SDS011;8330;-33.858;151.184;2023-07-31T06:58:19;1.80;;;0.73;;
16440;SDS011;8330;-33.858;151.184;2023-07-31T07:00:54;0.30;;;0.30;;
16440;SDS011;8330;-33.858;151.184;2023-07-31T07:03:25;1.55;;;0.40;;
16440;SDS011;8330;-33.858;151.184;2023-07-31T07:05:58;1.55;;;0.30;;
16440;SDS011;8330;-33.858;151.184;2023-07-31T07:08:29;2.85;;;0.50;;
16440;SDS011;8330;-33.858;151.184;2023-07-31T07:11:00;1.23;;;0.40;;
16440;SDS011;8330;-33.858;151.184;2023-07-31T07:13:31;0.70;;;0.43;;
16440;SDS011;8330;-33.858;151.184;2023-07-31T07:16:03;1.15;;;0.43;;
16440;SDS011;8330;-33.858;151.184;2023-07-31T07:18:34;0.77;;;0.50;;
16440;SDS011;8330;-33.858;151.184;2023-07-31T07:21:05;1.10;;;0.52;;
16440;SDS011;8330;-33.858;151.184;2023-07-31T07:23:40;1.98;;;0.55;;
16440;SDS011;8330;-33.858;151.184;2023-07-31T07:26:11;0.63;;;0.40;;
16440;SDS011;8330;-33.858;151.184;2023-07-31T07:28:43;1.73;;;0.70;;
16440;SDS011;8330;-33.858;151.184;2023-07-31T07:31:15;0.82;;;0.50;;
16440;SDS011;8330;-33.858;151.184;2023-07-31T07:33:47;1.50;;;0.60;;
16440;SDS011;8330;-33.858;151.184;2023-07-31T07:36:19;0.68;;;0.40;;
16440;SDS011;8330;-33.858;151.184;2023-07-31T07:38:51;0.73;;;0.52;;
16440;SDS011;8330;-33.858;151.184;2023-07-31T07:41:22;1.75;;;1.00;;
16440;SDS011;8330;-33.858;151.184;2023-07-31T07:43:54;2.40;;;1.73;;
16440;SDS011;8330;-33.858;151.184;2023-07-31T07:46:28;1.80;;;1.10;;
16440;SDS011;8330;-33.858;151.184;2023-07-31T07:48:59;1.23;;;1.10;;
16440;SDS011;8330;-33.858;151.184;2023-07-31T07:51:30;1.73;;;0.63;;
16440;SDS011;8330;-33.858;151.184;2023-07-31T07:54:01;1.60;;;0.63;;
16440;SDS011;8330;-33.858;151.184;2023-07-31T07:56:33;1.48;;;0.70;;
16440;SDS011;8330;-33.858;151.184;2023-07-31T07:59:04;1.17;;;0.95;;
16440;SDS011;8330;-33.858;151.184;2023-07-31T08:01:37;1.88;;;1.30;;
16440;SDS011;8330;-33.858;151.184;2023-07-31T08:04:07;1.65;;;1.20;;
16440;SDS011;8330;-33.858;151.184;2023-07-31T08:06:38;1.63;;;1.08;;
16440;SDS011;8330;-33.858;151.184;2023-07-31T08:09:09;1.77;;;0.88;;
16440;SDS011;8330;-33.858;151.184;2023-07-31T08:11:40;2.30;;;1.30;;
16440;SDS011;8330;-33.858;151.184;2023-07-31T08:14:12;1.73;;;1.58;;
16440;SDS011;8330;-33.858;151.184;2023-07-31T08:16:46;3.00;;;2.45;;
16440;SDS011;8330;-33.858;151.184;2023-07-31T08:19:17;3.03;;;2.30;;
16440;SDS011;8330;-33.858;151.184;2023-07-31T08:21:47;1.90;;;1.50;;
16440;SDS011;8330;-33.858;151.184;2023-07-31T08:24:18;2.15;;;1.38;;
16440;SDS011;8330;-33.858;151.184;2023-07-31T08:26:49;2.30;;;1.60;;
16440;SDS011;8330;-33.858;151.184;2023-07-31T08:29:20;3.95;;;3.50;;
16440;SDS011;8330;-33.858;151.184;2023-07-31T08:31:53;18.65;;;16.73;;
16440;SDS011;8330;-33.858;151.184;2023-07-31T08:34:24;37.85;;;33.88;;
16440;SDS011;8330;-33.858;151.184;2023-07-31T08:36:56;17.48;;;15.65;;
16440;SDS011;8330;-33.858;151.184;2023-07-31T08:39:27;9.10;;;8.13;;
16440;SDS011;8330;-33.858;151.184;2023-07-31T08:41:58;9.38;;;7.55;;
16440;SDS011;8330;-33.858;151.184;2023-07-31T08:47:05;5.45;;;4.57;;
16440;SDS011;8330;-33.858;151.184;2023-07-31T08:49:36;7.55;;;5.85;;
16440;SDS011;8330;-33.858;151.184;2023-07-31T08:52:08;6.07;;;4.45;;
16440;SDS011;8330;-33.858;151.184;2023-07-31T08:54:42;13.15;;;11.15;;
16440;SDS011;8330;-33.858;151.184;2023-07-31T08:57:14;13.30;;;11.05;;
16440;SDS011;8330;-33.858;151.184;2023-07-31T08:59:46;9.43;;;7.63;;
16440;SDS011;8330;-33.858;151.184;2023-07-31T09:02:22;7.65;;;5.40;;
16440;SDS011;8330;-33.858;151.184;2023-07-31T09:04:56;8.25;;;6.72;;
16440;SDS011;8330;-33.858;151.184;2023-07-31T09:07:28;9.45;;;6.20;;
16440;SDS011;8330;-33.858;151.184;2023-07-31T09:10:01;7.90;;;5.93;;
16440;SDS011;8330;-33.858;151.184;2023-07-31T09:12:33;5.47;;;4.97;;
16440;SDS011;8330;-33.858;151.184;2023-07-31T09:15:05;3.58;;;3.28;;
16440;SDS011;8330;-33.858;151.184;2023-07-31T09:17:40;4.65;;;3.20;;
16440;SDS011;8330;-33.858;151.184;2023-07-31T09:20:14;3.97;;;2.92;;
16440;SDS011;8330;-33.858;151.184;2023-07-31T09:22:46;3.38;;;3.08;;
16440;SDS011;8330;-33.858;151.184;2023-07-31T09:25:18;3.25;;;2.10;;
16440;SDS011;8330;-33.858;151.184;2023-07-31T09:27:51;3.38;;;2.65;;
16440;SDS011;8330;-33.858;151.184;2023-07-31T09:30:23;3.85;;;3.40;;
16440;SDS011;8330;-33.858;151.184;2023-07-31T09:33:02;3.53;;;3.17;;
16440;SDS011;8330;-33.858;151.184;2023-07-31T09:35:35;4.93;;;3.58;;
16440;SDS011;8330;-33.858;151.184;2023-07-31T09:38:07;6.65;;;5.43;;
16440;SDS011;8330;-33.858;151.184;2023-07-31T09:40:39;7.25;;;5.72;;
16440;SDS011;8330;-33.858;151.184;2023-07-31T09:43:12;5.40;;;3.95;;
16440;SDS011;8330;-33.858;151.184;2023-07-31T09:45:47;4.93;;;4.22;;
16440;SDS011;8330;-33.858;151.184;2023-07-31T09:48:27;7.90;;;3.90;;
16440;SDS011;8330;-33.858;151.184;2023-07-31T09:50:59;6.50;;;3.50;;
16440;SDS011;8330;-33.858;151.184;2023-07-31T09:53:35;5.75;;;4.25;;
16440;SDS011;8330;-33.858;151.184;2023-07-31T09:56:07;7.57;;;3.85;;
16440;SDS011;8330;-33.858;151.184;2023-07-31T09:58:38;9.85;;;4.78;;
16440;SDS011;8330;-33.858;151.184;2023-07-31T10:01:13;11.57;;;4.05;;
16440;SDS011;8330;-33.858;151.184;2023-07-31T10:03:48;16.73;;;5.47;;
16440;SDS011;8330;-33.858;151.184;2023-07-31T10:06:20;11.27;;;5.78;;
16440;SDS011;8330;-33.858;151.184;2023-07-31T10:08:53;8.98;;;3.60;;
16440;SDS011;8330;-33.858;151.184;2023-07-31T10:11:25;5.28;;;3.00;;
16440;SDS011;8330;-33.858;151.184;2023-07-31T10:14:03;5.68;;;3.40;;
16440;SDS011;8330;-33.858;151.184;2023-07-31T10:16:37;5.22;;;2.70;;
16440;SDS011;8330;-33.858;151.184;2023-07-31T10:19:11;5.72;;;3.10;;
16440;SDS011;8330;-33.858;151.184;2023-07-31T10:21:42;8.07;;;3.65;;
16440;SDS011;8330;-33.858;151.184;2023-07-31T10:24:15;6.40;;;3.72;;
16440;SDS011;8330;-33.858;151.184;2023-07-31T10:26:48;5.25;;;2.95;;
16440;SDS011;8330;-33.858;151.184;2023-07-31T10:29:20;5.50;;;2.58;;
16440;SDS011;8330;-33.858;151.184;2023-07-31T10:31:54;6.30;;;2.92;;
16440;SDS011;8330;-33.858;151.184;2023-07-31T10:34:30;4.82;;;3.08;;
16440;SDS011;8330;-33.858;151.184;2023-07-31T10:39:56;7.20;;;3.50;;
16440;SDS011;8330;-33.858;151.184;2023-07-31T10:42:32;7.97;;;3.90;;
16440;SDS011;8330;-33.858;151.184;2023-07-31T10:45:05;7.05;;;4.15;;
16440;SDS011;8330;-33.858;151.184;2023-07-31T10:47:38;5.32;;;2.83;;
16440;SDS011;8330;-33.858;151.184;2023-07-31T10:50:19;8.40;;;3.05;;
16440;SDS011;8330;-33.858;151.184;2023-07-31T10:52:51;4.85;;;3.17;;
16440;SDS011;8330;-33.858;151.184;2023-07-31T10:55:26;5.25;;;2.85;;
16440;SDS011;8330;-33.858;151.184;2023-07-31T10:58:01;4.72;;;2.90;;
16440;SDS011;8330;-33.858;151.184;2023-07-31T11:00:37;6.53;;;3.00;;
16440;SDS011;8330;-33.858;151.184;2023-07-31T11:03:08;7.35;;;3.20;;
16440;SDS011;8330;-33.858;151.184;2023-07-31T11:05:47;4.60;;;2.80;;
16440;SDS011;8330;-33.858;151.184;2023-07-31T11:08:20;4.75;;;2.40;;
16440;SDS011;8330;-33.858;151.184;2023-07-31T11:11:04;4.10;;;2.45;;
16440;SDS011;8330;-33.858;151.184;2023-07-31T11:16:13;4.20;;;2.55;;
16440;SDS011;8330;-33.858;151.184;2023-07-31T11:16:58;6.53;;;2.63;;
16440;SDS011;8330;-33.858;151.184;2023-07-31T11:19:29;4.63;;;2.63;;
16440;SDS011;8330;-33.858;151.184;2023-07-31T11:22:01;4.93;;;2.80;;
16440;SDS011;8330;-33.858;151.184;2023-07-31T11:24:32;4.10;;;2.50;;
16440;SDS011;8330;-33.858;151.184;2023-07-31T11:27:07;4.88;;;2.47;;
16440;SDS011;8330;-33.858;151.184;2023-07-31T11:29:38;3.53;;;1.95;;
16440;SDS011;8330;-33.858;151.184;2023-07-31T11:32:15;5.85;;;2.30;;
16440;SDS011;8330;-33.858;151.184;2023-07-31T11:34:52;3.67;;;2.00;;
16440;SDS011;8330;-33.858;151.184;2023-07-31T11:37:28;3.47;;;2.00;;
16440;SDS011;8330;-33.858;151.184;2023-07-31T11:40:09;4.88;;;2.00;;
16440;SDS011;8330;-33.858;151.184;2023-07-31T11:42:40;3.92;;;2.03;;
16440;SDS011;8330;-33.858;151.184;2023-07-31T11:45:12;4.50;;;2.22;;
16440;SDS011;8330;-33.858;151.184;2023-07-31T11:47:43;3.58;;;2.30;;
16440;SDS011;8330;-33.858;151.184;2023-07-31T11:50:16;4.07;;;1.95;;
16440;SDS011;8330;-33.858;151.184;2023-07-31T11:52:50;6.15;;;3.03;;
16440;SDS011;8330;-33.858;151.184;2023-07-31T11:55:25;3.20;;;1.70;;
16440;SDS011;8330;-33.858;151.184;2023-07-31T11:57:57;3.53;;;1.80;;
16440;SDS011;8330;-33.858;151.184;2023-07-31T12:00:30;3.08;;;1.63;;
16440;SDS011;8330;-33.858;151.184;2023-07-31T12:03:04;4.72;;;1.70;;
16440;SDS011;8330;-33.858;151.184;2023-07-31T12:05:39;5.72;;;1.95;;
16440;SDS011;8330;-33.858;151.184;2023-07-31T12:08:15;3.20;;;1.95;;
16440;SDS011;8330;-33.858;151.184;2023-07-31T12:10:54;4.53;;;2.00;;
16440;SDS011;8330;-33.858;151.184;2023-07-31T12:13:33;3.63;;;1.85;;
16440;SDS011;8330;-33.858;151.184;2023-07-31T12:16:04;3.38;;;1.70;;
16440;SDS011;8330;-33.858;151.184;2023-07-31T12:18:50;2.50;;;1.70;;
16440;SDS011;8330;-33.858;151.184;2023-07-31T12:21:21;3.75;;;1.52;;
16440;SDS011;8330;-33.858;151.184;2023-07-31T12:23:55;6.70;;;1.90;;
16440;SDS011;8330;-33.858;151.184;2023-07-31T12:26:33;4.85;;;1.83;;
16440;SDS011;8330;-33.858;151.184;2023-07-31T12:29:06;2.60;;;1.50;;
16440;SDS011;8330;-33.858;151.184;2023-07-31T12:31:40;3.38;;;1.63;;
16440;SDS011;8330;-33.858;151.184;2023-07-31T12:34:15;4.03;;;2.20;;
16440;SDS011;8330;-33.858;151.184;2023-07-31T12:36:53;4.13;;;2.15;;
16440;SDS011;8330;-33.858;151.184;2023-07-31T12:39:25;4.00;;;1.98;;
16440;SDS011;8330;-33.858;151.184;2023-07-31T12:41:56;3.30;;;1.98;;
16440;SDS011;8330;-33.858;151.184;2023-07-31T12:44:30;4.05;;;2.05;;
16440;SDS011;8330;-33.858;151.184;2023-07-31T12:47:08;3.70;;;1.95;;
16440;SDS011;8330;-33.858;151.184;2023-07-31T12:49:41;4.45;;;2.03;;
16440;SDS011;8330;-33.858;151.184;2023-07-31T12:52:12;3.78;;;1.70;;
16440;SDS011;8330;-33.858;151.184;2023-07-31T12:54:47;3.45;;;1.80;;
16440;SDS011;8330;-33.858;151.184;2023-07-31T12:57:19;5.10;;;2.08;;
16440;SDS011;8330;-33.858;151.184;2023-07-31T12:59:53;3.85;;;1.92;;
16440;SDS011;8330;-33.858;151.184;2023-07-31T13:02:25;4.63;;;1.85;;
16440;SDS011;8330;-33.858;151.184;2023-07-31T13:04:56;3.63;;;1.70;;
16440;SDS011;8330;-33.858;151.184;2023-07-31T13:07:28;2.67;;;1.50;;
16440;SDS011;8330;-33.858;151.184;2023-07-31T13:10:02;2.72;;;1.85;;
16440;SDS011;8330;-33.858;151.184;2023-07-31T13:12:34;3.13;;;1.95;;
16440;SDS011;8330;-33.858;151.184;2023-07-31T13:15:06;2.60;;;1.60;;
16440;SDS011;8330;-33.858;151.184;2023-07-31T13:17:38;5.18;;;1.38;;
16440;SDS011;8330;-33.858;151.184;2023-07-31T13:20:09;3.05;;;1.52;;
16440;SDS011;8330;-33.858;151.184;2023-07-31T13:22:41;2.67;;;1.50;;
16440;SDS011;8330;-33.858;151.184;2023-07-31T13:25:16;3.63;;;1.40;;
16440;SDS011;8330;-33.858;151.184;2023-07-31T13:27:48;2.65;;;1.60;;
16440;SDS011;8330;-33.858;151.184;2023-07-31T13:30:19;6.10;;;1.63;;
16440;SDS011;8330;-33.858;151.184;2023-07-31T13:32:49;3.58;;;1.50;;
16440;SDS011;8330;-33.858;151.184;2023-07-31T13:35:20;3.00;;;1.48;;
16440;SDS011;8330;-33.858;151.184;2023-07-31T13:37:52;2.13;;;1.20;;
16440;SDS011;8330;-33.858;151.184;2023-07-31T13:40:30;3.03;;;1.30;;
16440;SDS011;8330;-33.858;151.184;2023-07-31T13:43:02;3.95;;;1.23;;
16440;SDS011;8330;-33.858;151.184;2023-07-31T13:45:33;3.67;;;1.58;;
16440;SDS011;8330;-33.858;151.184;2023-07-31T13:48:05;4.00;;;1.20;;
16440;SDS011;8330;-33.858;151.184;2023-07-31T13:50:37;2.63;;;1.17;;
16440;SDS011;8330;-33.858;151.184;2023-07-31T13:53:08;3.13;;;1.33;;
16440;SDS011;8330;-33.858;151.184;2023-07-31T13:55:53;2.67;;;1.05;;
16440;SDS011;8330;-33.858;151.184;2023-07-31T13:58:38;1.95;;;1.10;;
16440;SDS011;8330;-33.858;151.184;2023-07-31T14:01:09;2.13;;;1.15;;
16440;SDS011;8330;-33.858;151.184;2023-07-31T14:03:42;2.38;;;1.00;;
16440;SDS011;8330;-33.858;151.184;2023-07-31T14:06:13;1.90;;;1.02;;
16440;SDS011;8330;-33.858;151.184;2023-07-31T14:08:44;5.93;;;1.15;;
16440;SDS011;8330;-33.858;151.184;2023-07-31T14:11:22;3.00;;;1.40;;
16440;SDS011;8330;-33.858;151.184;2023-07-31T14:13:53;1.52;;;1.00;;
16440;SDS011;8330;-33.858;151.184;2023-07-31T14:16:25;4.28;;;1.10;;
16440;SDS011;8330;-33.858;151.184;2023-07-31T14:18:57;3.45;;;1.20;;
16440;SDS011;8330;-33.858;151.184;2023-07-31T14:21:29;3.30;;;1.00;;
16440;SDS011;8330;-33.858;151.184;2023-07-31T14:24:01;2.45;;;1.10;;
16440;SDS011;8330;-33.858;151.184;2023-07-31T14:26:35;2.42;;;1.00;;
16440;SDS011;8330;-33.858;151.184;2023-07-31T14:29:07;1.35;;;0.90;;
16440;SDS011;8330;-33.858;151.184;2023-07-31T14:31:38;3.67;;;1.00;;
16440;SDS011;8330;-33.858;151.184;2023-07-31T14:34:09;4.60;;;0.75;;
16440;SDS011;8330;-33.858;151.184;2023-07-31T14:36:40;3.00;;;0.95;;
16440;SDS011;8330;-33.858;151.184;2023-07-31T14:39:12;2.45;;;1.00;;
16440;SDS011;8330;-33.858;151.184;2023-07-31T14:41:46;4.38;;;1.00;;
16440;SDS011;8330;-33.858;151.184;2023-07-31T14:44:17;2.45;;;1.05;;
16440;SDS011;8330;-33.858;151.184;2023-07-31T14:46:48;2.08;;;0.98;;
16440;SDS011;8330;-33.858;151.184;2023-07-31T14:49:20;2.15;;;0.95;;
16440;SDS011;8330;-33.858;151.184;2023-07-31T14:51:55;4.30;;;1.23;;
16440;SDS011;8330;-33.858;151.184;2023-07-31T14:54:25;2.05;;;0.80;;
16440;SDS011;8330;-33.858;151.184;2023-07-31T14:57:00;2.33;;;0.95;;
16440;SDS011;8330;-33.858;151.184;2023-07-31T14:59:32;4.45;;;1.00;;